createdAt,value
2019-05-07T00:00:28.796Z,2.10
2019-05-07T00:02:57.368Z,2.30
2019-05-07T00:05:25.841Z,2.10
2019-05-07T00:07:55.921Z,2.03
2019-05-07T00:10:24.884Z,2.10
2019-05-07T00:12:53.630Z,2.10
2019-05-07T00:15:22.996Z,1.67
2019-05-07T00:17:52.293Z,2.00
2019-05-07T00:20:23.062Z,2.10
2019-05-07T00:22:53.267Z,1.83
2019-05-07T00:25:22.863Z,2.50
2019-05-07T00:27:52.311Z,2.53
2019-05-07T00:30:22.405Z,2.10
2019-05-07T00:33:10.337Z,2.10
2019-05-07T00:35:43.354Z,2.30
2019-05-07T00:38:13.516Z,2.53
2019-05-07T00:40:43.649Z,2.20
2019-05-07T00:43:16.313Z,2.07
2019-05-07T00:45:56.939Z,2.30
2019-05-07T00:48:25.770Z,2.50
2019-05-07T00:50:55.854Z,2.60
2019-05-07T00:53:24.420Z,2.10
2019-05-07T00:55:53.741Z,2.50
2019-05-07T00:58:26.453Z,2.93
2019-05-07T01:00:53.122Z,2.40
2019-05-07T01:03:22.258Z,2.63
2019-05-07T01:05:52.714Z,2.40
2019-05-07T01:08:22.535Z,2.00
2019-05-07T01:10:52.943Z,2.43
2019-05-07T01:13:23.384Z,2.50
2019-05-07T01:15:53.150Z,2.20
2019-05-07T01:18:23.303Z,2.53
2019-05-07T01:20:53.290Z,2.57
2019-05-07T01:23:22.970Z,2.07
2019-05-07T01:25:52.606Z,2.03
2019-05-07T01:28:22.404Z,2.30
2019-05-07T01:30:52.758Z,2.70
2019-05-07T01:33:22.997Z,2.73
2019-05-07T01:36:13.250Z,2.60
2019-05-07T01:38:42.720Z,2.27
2019-05-07T01:41:32.661Z,2.87
2019-05-07T01:44:02.044Z,2.67
2019-05-07T01:46:32.443Z,2.67
2019-05-07T01:49:02.881Z,2.73
2019-05-07T01:51:32.587Z,2.50
2019-05-07T01:54:02.212Z,2.37
2019-05-07T01:56:33.077Z,2.63
2019-05-07T01:59:02.410Z,2.47
2019-05-07T02:01:35.442Z,3.07
2019-05-07T02:04:03.011Z,2.60
2019-05-07T02:09:42.319Z,2.20
2019-05-07T02:12:18.006Z,2.40
2019-05-07T02:14:46.516Z,2.37
2019-05-07T02:17:14.969Z,2.27
2019-05-07T02:19:43.417Z,2.70
2019-05-07T02:22:13.396Z,2.77
2019-05-07T02:24:43.427Z,2.50
2019-05-07T02:27:12.652Z,2.97
2019-05-07T02:29:43.032Z,2.60
2019-05-07T02:32:13.371Z,3.00
2019-05-07T02:34:44.175Z,3.60
2019-05-07T02:37:13.589Z,2.67
2019-05-07T02:39:44.532Z,2.60
2019-05-07T02:42:13.510Z,2.23
2019-05-07T02:44:59.882Z,2.50
2019-05-07T02:47:33.048Z,3.20
2019-05-07T02:50:05.224Z,2.70
2019-05-07T02:52:53.773Z,2.37
2019-05-07T02:55:23.533Z,3.07
2019-05-07T02:57:54.076Z,2.67
2019-05-07T03:00:24.101Z,2.77
2019-05-07T03:02:53.235Z,2.63
2019-05-07T03:05:22.921Z,2.80
2019-05-07T03:07:53.595Z,2.67
2019-05-07T03:10:23.729Z,2.63
2019-05-07T03:12:53.679Z,2.53
2019-05-07T03:15:24.170Z,2.53
2019-05-07T03:17:54.163Z,2.70
2019-05-07T03:20:24.235Z,2.70
2019-05-07T03:22:53.783Z,2.57
2019-05-07T03:25:43.181Z,2.33
2019-05-07T03:28:13.585Z,2.33
2019-05-07T03:31:05.379Z,2.40
2019-05-07T03:33:36.132Z,2.67
2019-05-07T03:36:07.362Z,2.20
2019-05-07T03:38:34.293Z,2.30
2019-05-07T03:41:03.891Z,3.03
2019-05-07T03:43:32.735Z,1.97
2019-05-07T03:46:14.155Z,2.73
2019-05-07T03:48:44.278Z,2.40
2019-05-07T03:51:13.356Z,2.13
2019-05-07T03:53:43.531Z,2.47
2019-05-07T03:56:13.031Z,2.50
2019-05-07T03:58:43.182Z,2.37
2019-05-07T04:01:13.366Z,2.10
2019-05-07T04:03:44.707Z,2.60
2019-05-07T04:06:12.971Z,2.70
2019-05-07T04:08:43.624Z,2.70
2019-05-07T04:11:13.812Z,2.70
2019-05-07T04:13:44.147Z,2.63
2019-05-07T04:16:13.537Z,2.60
2019-05-07T04:18:43.732Z,2.30
2019-05-07T04:21:14.002Z,2.30
2019-05-07T04:23:44.000Z,2.37
2019-05-07T04:26:23.185Z,2.30
2019-05-07T04:28:59.795Z,2.43
2019-05-07T04:31:33.877Z,2.17
2019-05-07T04:34:03.684Z,2.90
2019-05-07T04:36:34.376Z,2.77
2019-05-07T04:39:03.552Z,2.50
2019-05-07T04:41:32.922Z,2.30
2019-05-07T04:44:03.661Z,2.37
2019-05-07T04:46:33.596Z,2.30
2019-05-07T04:49:03.692Z,2.60
2019-05-07T04:51:35.051Z,2.40
2019-05-07T04:54:03.992Z,2.60
2019-05-07T04:56:33.635Z,2.60
2019-05-07T04:59:03.614Z,2.60
2019-05-07T05:01:34.430Z,2.33
2019-05-07T05:04:20.499Z,2.50
2019-05-07T05:06:33.746Z,3.00
2019-05-07T05:09:03.140Z,2.53
2019-05-07T05:11:53.047Z,2.50
2019-05-07T05:14:22.902Z,2.53
2019-05-07T05:16:52.558Z,2.57
2019-05-07T05:19:23.004Z,2.50
2019-05-07T05:21:56.014Z,2.60
2019-05-07T05:24:26.069Z,2.97
2019-05-07T05:26:54.885Z,2.40
2019-05-07T05:29:23.676Z,2.67
2019-05-07T05:31:52.960Z,2.67
2019-05-07T05:34:22.357Z,3.03
2019-05-07T05:36:53.173Z,2.30
2019-05-07T05:39:22.567Z,2.60
2019-05-07T05:41:53.149Z,2.40
2019-05-07T05:44:26.648Z,2.60
2019-05-07T05:46:55.549Z,2.13
2019-05-07T05:49:24.435Z,2.30
2019-05-07T05:52:07.151Z,2.60
2019-05-07T05:54:42.442Z,2.47
2019-05-07T05:57:18.039Z,2.67
2019-05-07T05:59:52.670Z,2.20
2019-05-07T06:02:22.890Z,2.53
2019-05-07T06:04:55.816Z,2.20
2019-05-07T06:07:32.039Z,2.30
2019-05-07T06:10:02.631Z,2.40
2019-05-07T06:12:35.808Z,2.20
2019-05-07T06:15:22.975Z,1.83
2019-05-07T06:17:53.191Z,2.47
2019-05-07T06:20:35.851Z,2.47
2019-05-07T06:23:12.862Z,2.00
2019-05-07T06:25:43.096Z,2.03
2019-05-07T06:28:12.719Z,2.33
2019-05-07T06:30:41.906Z,2.40
2019-05-07T06:33:12.402Z,2.30
2019-05-07T06:35:42.302Z,2.40
2019-05-07T06:38:12.439Z,2.10
2019-05-07T06:41:02.657Z,2.13
2019-05-07T06:43:45.150Z,2.50
2019-05-07T06:46:13.596Z,2.67
2019-05-07T06:48:45.332Z,1.77
2019-05-07T06:51:12.685Z,2.00
2019-05-07T06:53:42.254Z,2.20
2019-05-07T06:56:12.260Z,2.17
2019-05-07T06:59:02.230Z,2.40
2019-05-07T07:01:32.445Z,2.20
2019-05-07T07:04:12.987Z,2.37
2019-05-07T07:06:48.793Z,2.20
2019-05-07T07:09:24.852Z,1.90
2019-05-07T07:11:55.827Z,1.87
2019-05-07T07:14:24.353Z,2.20
2019-05-07T07:16:52.899Z,2.23
2019-05-07T07:19:23.318Z,2.20
2019-05-07T07:21:52.761Z,2.00
2019-05-07T07:24:22.296Z,2.63
2019-05-07T07:26:52.786Z,2.43
2019-05-07T07:29:22.703Z,2.33
2019-05-07T07:31:56.050Z,2.20
2019-05-07T07:34:25.706Z,2.03
2019-05-07T07:37:05.450Z,1.80
2019-05-07T07:39:26.014Z,2.10
2019-05-07T07:41:56.136Z,1.80
2019-05-07T07:44:24.587Z,1.67
2019-05-07T07:46:53.281Z,1.60
2019-05-07T07:49:22.342Z,1.80
2019-05-07T07:51:52.612Z,1.70
2019-05-07T07:54:22.728Z,1.53
2019-05-07T07:56:58.933Z,2.00
2019-05-07T07:59:29.087Z,1.60
2019-05-07T08:02:14.972Z,1.70
2019-05-07T08:04:43.480Z,1.77
2019-05-07T08:07:12.458Z,1.67
2019-05-07T08:09:42.791Z,1.87
2019-05-07T08:12:12.729Z,1.63
2019-05-07T08:14:42.676Z,1.93
2019-05-07T08:17:12.980Z,2.00
2019-05-07T08:19:42.831Z,1.87
2019-05-07T08:22:12.221Z,2.27
2019-05-07T08:24:42.601Z,1.53
2019-05-07T08:27:12.899Z,1.80
2019-05-07T08:29:42.958Z,1.60
2019-05-07T08:32:22.505Z,1.70
2019-05-07T08:34:52.680Z,1.70
2019-05-07T08:37:24.331Z,1.67
2019-05-07T08:39:52.014Z,1.70
2019-05-07T08:42:22.752Z,1.50
2019-05-07T08:44:58.141Z,1.53
2019-05-07T08:47:31.901Z,2.07
2019-05-07T08:50:02.678Z,1.80
2019-05-07T08:52:32.578Z,1.80
2019-05-07T08:55:02.147Z,1.77
2019-05-07T08:57:31.845Z,1.53
2019-05-07T09:00:02.271Z,1.70
2019-05-07T09:02:32.621Z,1.60
2019-05-07T09:05:02.954Z,1.40
2019-05-07T09:07:32.188Z,1.60
2019-05-07T09:10:02.518Z,1.80
2019-05-07T09:12:31.820Z,1.60
2019-05-07T09:15:19.894Z,1.30
2019-05-07T09:17:48.351Z,1.50
2019-05-07T09:20:36.269Z,1.53
2019-05-07T09:23:04.850Z,1.20
2019-05-07T09:25:34.940Z,1.60
2019-05-07T09:28:03.595Z,1.30
2019-05-07T09:30:52.299Z,1.37
2019-05-07T09:33:38.563Z,1.50
2019-05-07T09:36:08.657Z,1.50
2019-05-07T09:38:37.103Z,1.40
2019-05-07T09:41:05.597Z,1.57
2019-05-07T09:43:34.128Z,1.40
2019-05-07T09:46:02.809Z,1.30
2019-05-07T09:48:33.609Z,1.47
2019-05-07T09:51:02.353Z,1.47
2019-05-07T09:53:32.169Z,1.40
2019-05-07T09:56:02.164Z,1.60
2019-05-07T09:58:36.572Z,1.57
2019-05-07T10:01:02.075Z,1.67
2019-05-07T10:03:32.379Z,1.50
2019-05-07T10:06:02.275Z,1.40
2019-05-07T10:08:32.563Z,1.57
2019-05-07T10:11:02.689Z,1.23
2019-05-07T10:13:48.275Z,1.37
2019-05-07T10:16:18.639Z,1.30
2019-05-07T10:18:47.235Z,1.30
2019-05-07T10:21:15.678Z,1.23
2019-05-07T10:23:44.491Z,1.30
2019-05-07T10:26:13.199Z,1.10
2019-05-07T10:28:42.479Z,1.50
2019-05-07T10:31:11.422Z,1.43
2019-05-07T10:33:42.120Z,1.40
2019-05-07T10:36:12.383Z,1.70
2019-05-07T10:38:40.741Z,1.40
2019-05-07T10:41:12.031Z,1.40
2019-05-07T10:43:42.728Z,1.20
2019-05-07T10:46:21.059Z,1.40
2019-05-07T10:48:51.216Z,1.53
2019-05-07T10:51:21.683Z,1.70
2019-05-07T10:53:51.801Z,1.40
2019-05-07T10:56:22.268Z,1.60
2019-05-07T10:58:52.246Z,1.53
2019-05-07T11:01:22.730Z,1.30
2019-05-07T11:03:51.760Z,1.40
2019-05-07T11:06:22.095Z,1.43
2019-05-07T11:08:51.880Z,1.63
2019-05-07T11:11:20.474Z,1.60
2019-05-07T11:13:48.935Z,1.57
2019-05-07T11:16:19.154Z,1.70
2019-05-07T11:18:51.603Z,1.70
2019-05-07T11:21:33.318Z,1.70
2019-05-07T11:24:03.157Z,1.53
2019-05-07T11:26:32.883Z,1.53
2019-05-07T11:29:02.376Z,1.50
2019-05-07T11:31:33.071Z,1.90
2019-05-07T11:34:02.763Z,1.70
2019-05-07T11:36:32.006Z,1.67
2019-05-07T11:39:01.860Z,1.80
2019-05-07T11:41:32.126Z,1.70
2019-05-07T11:44:02.442Z,1.50
2019-05-07T11:46:38.342Z,1.40
2019-05-07T11:49:14.732Z,1.87
2019-05-07T11:51:51.664Z,1.60
2019-05-07T11:54:20.356Z,1.60
2019-05-07T11:56:48.828Z,1.53
2019-05-07T11:59:17.354Z,1.60
2019-05-07T12:01:52.604Z,1.57
2019-05-07T12:04:20.483Z,1.57
2019-05-07T12:06:48.939Z,1.60
2019-05-07T12:09:17.453Z,1.90
2019-05-07T12:11:46.061Z,1.90
2019-05-07T12:14:27.787Z,1.70
2019-05-07T12:16:44.762Z,1.97
2019-05-07T12:19:16.308Z,2.10
2019-05-07T12:21:43.550Z,2.17
2019-05-07T12:24:13.578Z,2.20
2019-05-07T12:26:43.666Z,2.00
2019-05-07T12:29:12.468Z,2.23
2019-05-07T12:31:42.708Z,2.07
2019-05-07T12:34:13.186Z,2.03
2019-05-07T12:36:41.710Z,2.23
2019-05-07T12:39:12.559Z,2.00
2019-05-07T12:41:41.928Z,2.00
2019-05-07T12:44:13.018Z,1.60
2019-05-07T12:46:42.311Z,1.73
2019-05-07T12:49:11.950Z,1.63
2019-05-07T12:51:42.730Z,2.00
2019-05-07T12:54:18.823Z,2.10
2019-05-07T12:56:47.407Z,1.60
2019-05-07T12:59:15.866Z,1.93
2019-05-07T13:02:01.117Z,1.70
2019-05-07T13:04:32.533Z,1.50
2019-05-07T13:07:15.120Z,1.60
2019-05-07T13:09:43.644Z,1.50
2019-05-07T13:12:12.250Z,1.70
2019-05-07T13:14:40.813Z,1.73
2019-05-07T13:17:09.275Z,1.50
2019-05-07T13:19:39.259Z,1.57
2019-05-07T13:22:08.146Z,1.70
2019-05-07T13:24:36.727Z,1.63
2019-05-07T13:27:05.458Z,1.70
2019-05-07T13:29:33.962Z,1.50
2019-05-07T13:32:03.431Z,1.40
2019-05-07T13:34:34.073Z,1.40
2019-05-07T13:37:04.446Z,1.67
2019-05-07T13:39:35.447Z,1.53
2019-05-07T13:42:05.929Z,1.70
2019-05-07T13:44:36.566Z,1.50
2019-05-07T13:47:22.833Z,1.60
2019-05-07T13:49:53.636Z,1.60
2019-05-07T13:52:23.410Z,1.20
2019-05-07T13:54:52.683Z,1.40
2019-05-07T13:57:22.714Z,1.50
2019-05-07T13:59:53.052Z,1.40
2019-05-07T14:02:23.552Z,1.60
2019-05-07T14:04:52.703Z,1.50
2019-05-07T14:07:21.975Z,1.60
2019-05-07T14:09:52.671Z,1.73
2019-05-07T14:12:22.970Z,1.70
2019-05-07T14:14:53.032Z,1.70
2019-05-07T14:17:22.292Z,1.53
2019-05-07T14:19:52.838Z,1.83
2019-05-07T14:22:22.564Z,1.90
2019-05-07T14:24:52.998Z,1.63
2019-05-07T14:27:22.172Z,1.80
2019-05-07T14:29:52.023Z,1.70
2019-05-07T14:32:35.116Z,1.40
2019-05-07T14:35:15.802Z,1.30
2019-05-07T14:37:45.995Z,1.47
2019-05-07T14:40:14.992Z,1.70
2019-05-07T14:42:47.938Z,1.70
2019-05-07T14:45:16.805Z,1.60
2019-05-07T14:47:45.389Z,1.60
2019-05-07T14:50:14.798Z,1.50
2019-05-07T14:52:43.492Z,1.80
2019-05-07T14:55:12.968Z,1.70
2019-05-07T14:57:42.115Z,1.70
2019-05-07T15:00:12.233Z,1.67
2019-05-07T15:02:42.171Z,1.50
2019-05-07T15:05:12.036Z,1.50
2019-05-07T15:07:41.256Z,1.80
2019-05-07T15:10:10.605Z,1.70
2019-05-07T15:12:39.368Z,1.50
2019-05-07T15:15:27.468Z,1.40
2019-05-07T15:18:07.515Z,1.70
2019-05-07T15:20:36.106Z,1.20
2019-05-07T15:23:09.405Z,1.60
2019-05-07T15:25:38.110Z,1.53
2019-05-07T15:28:07.545Z,1.50
2019-05-07T15:30:44.189Z,1.70
2019-05-07T15:33:32.401Z,1.53
2019-05-07T15:36:02.899Z,1.57
2019-05-07T15:38:32.374Z,1.70
2019-05-07T15:41:02.239Z,1.60
2019-05-07T15:43:32.411Z,1.13
2019-05-07T15:46:02.050Z,1.17
2019-05-07T15:48:32.624Z,1.00
2019-05-07T15:51:00.971Z,1.37
2019-05-07T15:53:34.063Z,1.30
2019-05-07T15:56:02.639Z,1.33
2019-05-07T15:58:31.241Z,1.53
2019-05-07T16:00:59.697Z,1.47
2019-05-07T16:03:32.008Z,1.47
2019-05-07T16:06:03.577Z,1.50
2019-05-07T16:08:32.788Z,1.80
2019-05-07T16:11:01.601Z,1.83
2019-05-07T16:13:33.347Z,1.50
2019-05-07T16:16:02.409Z,1.33
2019-05-07T16:18:32.787Z,1.70
2019-05-07T16:21:02.089Z,1.53
2019-05-07T16:23:32.660Z,1.50
2019-05-07T16:26:02.448Z,1.63
2019-05-07T16:28:32.417Z,1.30
2019-05-07T16:31:02.560Z,1.40
2019-05-07T16:33:31.982Z,1.40
2019-05-07T16:36:02.128Z,1.80
2019-05-07T16:38:32.560Z,1.80
2019-05-07T16:41:00.957Z,1.50
2019-05-07T16:43:29.413Z,1.50
2019-05-07T16:45:58.201Z,1.67
2019-05-07T16:48:30.054Z,1.70
2019-05-07T16:50:58.503Z,1.40
2019-05-07T16:53:30.089Z,1.40
2019-05-07T16:55:57.201Z,1.67
2019-05-07T16:58:35.038Z,1.57
2019-05-07T17:01:08.236Z,1.50
2019-05-07T17:03:47.640Z,1.30
2019-05-07T17:06:16.209Z,2.00
2019-05-07T17:08:46.305Z,1.67
2019-05-07T17:11:14.768Z,1.40
2019-05-07T17:13:43.338Z,1.77
2019-05-07T17:16:12.325Z,1.40
2019-05-07T17:18:41.132Z,1.67
2019-05-07T17:21:09.696Z,1.53
2019-05-07T17:23:44.201Z,1.47
2019-05-07T17:26:08.335Z,1.63
2019-05-07T17:28:36.897Z,1.60
2019-05-07T17:31:05.416Z,1.60
2019-05-07T17:33:33.869Z,1.87
2019-05-07T17:36:02.607Z,1.73
2019-05-07T17:38:32.249Z,1.70
2019-05-07T17:41:10.776Z,2.40
2019-05-07T17:43:32.526Z,1.50
2019-05-07T17:46:02.818Z,1.50
2019-05-07T17:48:32.723Z,1.60
2019-05-07T17:51:05.803Z,1.60
2019-05-07T17:53:34.611Z,1.40
2019-05-07T17:56:03.132Z,1.50
2019-05-07T17:58:32.526Z,1.40
2019-05-07T18:01:03.066Z,1.50
2019-05-07T18:03:32.539Z,1.40
2019-05-07T18:06:02.580Z,1.50
2019-05-07T18:08:32.604Z,1.70
2019-05-07T18:11:02.269Z,1.67
2019-05-07T18:13:32.279Z,1.80
2019-05-07T18:16:06.985Z,1.70
2019-05-07T18:18:35.487Z,1.57
2019-05-07T18:21:05.181Z,1.63
2019-05-07T18:23:34.118Z,1.70
2019-05-07T18:26:30.286Z,1.70
2019-05-07T18:28:52.335Z,1.80
2019-05-07T18:31:22.547Z,1.70
2019-05-07T18:34:00.017Z,1.87
2019-05-07T18:36:28.605Z,1.90
2019-05-07T18:38:57.039Z,1.73
2019-05-07T18:41:25.545Z,1.67
2019-05-07T18:43:54.687Z,1.60
2019-05-07T18:46:23.385Z,1.73
2019-05-07T18:48:51.954Z,1.90
2019-05-07T18:51:20.425Z,1.70
2019-05-07T18:53:48.889Z,1.50
2019-05-07T18:56:17.585Z,1.73
2019-05-07T18:58:46.032Z,2.00
2019-05-07T19:01:15.759Z,1.63
2019-05-07T19:03:44.793Z,1.60
2019-05-07T19:06:13.689Z,1.80
2019-05-07T19:08:42.431Z,1.77
2019-05-07T19:11:12.304Z,1.70
2019-05-07T19:13:41.984Z,1.80
2019-05-07T19:16:12.495Z,2.00
2019-05-07T19:18:43.052Z,1.63
2019-05-07T19:21:12.899Z,2.50
2019-05-07T19:23:42.351Z,1.90
2019-05-07T19:26:13.027Z,1.70
2019-05-07T19:28:41.774Z,1.80
2019-05-07T19:31:12.291Z,1.60
2019-05-07T19:33:41.933Z,1.70
2019-05-07T19:36:10.746Z,1.60
2019-05-07T19:38:39.277Z,1.70
2019-05-07T19:41:07.836Z,1.83
2019-05-07T19:43:37.676Z,1.60
2019-05-07T19:46:06.241Z,1.80
2019-05-07T19:48:34.761Z,1.97
2019-05-07T19:51:03.199Z,2.00
2019-05-07T19:53:32.734Z,1.70
2019-05-07T19:56:06.527Z,1.70
2019-05-07T19:58:35.052Z,1.60
2019-05-07T20:01:05.308Z,1.70
2019-05-07T20:03:35.358Z,1.67
2019-05-07T20:06:05.994Z,1.60
2019-05-07T20:08:34.516Z,1.90
2019-05-07T20:11:16.410Z,1.60
2019-05-07T20:13:45.012Z,1.90
2019-05-07T20:16:15.103Z,1.70
2019-05-07T20:18:43.789Z,1.70
2019-05-07T20:21:12.568Z,1.60
2019-05-07T20:23:43.162Z,1.80
2019-05-07T20:26:12.583Z,1.73
2019-05-07T20:28:41.816Z,1.70
2019-05-07T20:31:12.210Z,2.00
2019-05-07T20:33:42.179Z,2.17
2019-05-07T20:36:11.283Z,2.20
2019-05-07T20:38:39.941Z,2.00
2019-05-07T20:41:08.747Z,1.77
2019-05-07T20:43:37.401Z,2.17
2019-05-07T20:46:05.902Z,2.17
2019-05-07T20:48:34.534Z,1.97
2019-05-07T20:51:03.103Z,2.10
2019-05-07T20:53:52.117Z,2.10
2019-05-07T20:56:22.576Z,2.10
2019-05-07T20:58:52.057Z,2.13
2019-05-07T21:01:22.031Z,2.10
2019-05-07T21:03:52.591Z,2.07
2019-05-07T21:06:22.533Z,2.47
2019-05-07T21:08:51.268Z,2.17
2019-05-07T21:11:19.797Z,2.40
2019-05-07T21:13:48.249Z,2.23
2019-05-07T21:16:16.897Z,2.10
2019-05-07T21:18:45.444Z,2.10
2019-05-07T21:21:14.260Z,2.40
2019-05-07T21:23:43.553Z,2.30
2019-05-07T21:26:13.234Z,2.07
2019-05-07T21:28:43.170Z,2.83
2019-05-07T21:31:12.185Z,2.47
2019-05-07T21:33:42.909Z,2.27
2019-05-07T21:36:12.139Z,2.70
2019-05-07T21:38:42.571Z,2.83
2019-05-07T21:41:33.253Z,3.23
2019-05-07T21:44:01.445Z,2.30
2019-05-07T21:46:29.897Z,2.30
2019-05-07T21:48:58.357Z,2.30
2019-05-07T21:51:26.855Z,2.23
2019-05-07T21:53:57.260Z,2.30
2019-05-07T22:02:13.318Z,2.13
2019-05-07T22:04:42.252Z,2.10
2019-05-07T22:07:12.207Z,2.30
2019-05-07T22:09:40.812Z,2.50
2019-05-07T22:12:09.314Z,2.30
2019-05-07T22:14:37.840Z,2.30
2019-05-07T22:17:06.421Z,2.17
2019-05-07T22:19:34.910Z,2.23
2019-05-07T22:22:03.867Z,2.43
2019-05-07T22:24:32.858Z,2.40
2019-05-07T22:27:02.068Z,2.30
2019-05-07T22:29:31.912Z,2.37
2019-05-07T22:32:02.729Z,2.50
2019-05-07T22:34:33.249Z,2.50
2019-05-07T22:37:03.270Z,2.30
2019-05-07T22:39:32.688Z,2.50
2019-05-07T22:42:02.442Z,2.43
2019-05-07T22:44:32.167Z,2.33
2019-05-07T22:47:02.558Z,2.33
2019-05-07T22:49:33.210Z,2.50
2019-05-07T22:52:02.339Z,2.40
2019-05-07T22:54:31.988Z,2.80
2019-05-07T22:57:03.079Z,2.60
2019-05-07T22:59:32.831Z,2.60
2019-05-07T23:02:03.231Z,2.40
2019-05-07T23:04:32.543Z,2.47
2019-05-07T23:07:02.198Z,2.90
2019-05-07T23:09:31.163Z,2.50
2019-05-07T23:12:01.748Z,2.40
2019-05-07T23:14:29.972Z,2.67
2019-05-07T23:16:58.515Z,2.63
2019-05-07T23:19:27.084Z,2.60
2019-05-07T23:21:55.540Z,2.53
2019-05-07T23:24:24.916Z,2.47
2019-05-07T23:26:53.903Z,2.60
2019-05-07T23:29:22.786Z,2.60
2019-05-07T23:31:52.934Z,2.60
2019-05-07T23:34:22.138Z,2.73
2019-05-07T23:36:53.435Z,2.50
2019-05-07T23:39:22.980Z,2.70
2019-05-07T23:42:09.376Z,2.50
2019-05-07T23:44:37.896Z,2.40
2019-05-07T23:47:06.372Z,2.80
2019-05-07T23:49:36.116Z,2.50
2019-05-07T23:52:04.630Z,2.77
2019-05-07T23:54:33.165Z,2.30
2019-05-07T23:57:09.756Z,2.70
2019-05-07T23:59:56.815Z,2.70
